sensor_id;sensor_type;location;lat;lon;timestamp;temperature;humidity
33580;DHT22;19909;43.644;-79.438;2023-04-24T00:00:32;19.00;44.80
33580;DHT22;19909;43.644;-79.438;2023-04-24T00:02:58;19.00;44.80
33580;DHT22;19909;43.644;-79.438;2023-04-24T00:05:25;18.90;44.50
33580;DHT22;19909;43.644;-79.438;2023-04-24T00:07:51;18.90;44.30
33580;DHT22;19909;43.644;-79.438;2023-04-24T00:10:21;18.90;44.30
33580;DHT22;19909;43.644;-79.438;2023-04-24T00:12:47;18.90;44.50
33580;DHT22;19909;43.644;-79.438;2023-04-24T00:15:13;19.00;44.60
33580;DHT22;19909;43.644;-79.438;2023-04-24T00:17:39;18.90;44.60
33580;DHT22;19909;43.644;-79.438;2023-04-24T00:20:06;19.00;44.60
33580;DHT22;19909;43.644;-79.438;2023-04-24T00:22:32;18.90;44.70
33580;DHT22;19909;43.644;-79.438;2023-04-24T00:24:59;19.00;44.70
33580;DHT22;19909;43.644;-79.438;2023-04-24T00:27:25;18.90;44.70
33580;DHT22;19909;43.644;-79.438;2023-04-24T00:29:51;18.90;44.70
33580;DHT22;19909;43.644;-79.438;2023-04-24T00:32:17;19.00;44.80
33580;DHT22;19909;43.644;-79.438;2023-04-24T00:34:44;19.00;44.60
33580;DHT22;19909;43.644;-79.438;2023-04-24T00:37:10;19.00;44.30
33580;DHT22;19909;43.644;-79.438;2023-04-24T00:39:37;18.90;44.20
33580;DHT22;19909;43.644;-79.438;2023-04-24T00:42:03;18.90;44.40
33580;DHT22;19909;43.644;-79.438;2023-04-24T00:44:33;18.90;44.50
33580;DHT22;19909;43.644;-79.438;2023-04-24T00:47:01;18.90;44.40
33580;DHT22;19909;43.644;-79.438;2023-04-24T00:49:27;18.90;44.40
33580;DHT22;19909;43.644;-79.438;2023-04-24T00:51:54;18.90;44.30
33580;DHT22;19909;43.644;-79.438;2023-04-24T00:54:20;18.90;44.30
33580;DHT22;19909;43.644;-79.438;2023-04-24T00:56:46;18.90;44.90
33580;DHT22;19909;43.644;-79.438;2023-04-24T00:59:13;18.90;44.50
33580;DHT22;19909;43.644;-79.438;2023-04-24T01:01:42;18.90;44.40
33580;DHT22;19909;43.644;-79.438;2023-04-24T01:04:10;19.00;44.40
33580;DHT22;19909;43.644;-79.438;2023-04-24T01:06:39;18.90;44.10
33580;DHT22;19909;43.644;-79.438;2023-04-24T01:09:06;18.90;44.00
33580;DHT22;19909;43.644;-79.438;2023-04-24T01:11:34;18.90;44.20
33580;DHT22;19909;43.644;-79.438;2023-04-24T01:14:00;18.90;44.10
33580;DHT22;19909;43.644;-79.438;2023-04-24T01:16:27;18.90;44.10
33580;DHT22;19909;43.644;-79.438;2023-04-24T01:18:53;18.90;44.20
33580;DHT22;19909;43.644;-79.438;2023-04-24T01:21:21;18.90;44.20
33580;DHT22;19909;43.644;-79.438;2023-04-24T01:23:47;18.90;44.30
33580;DHT22;19909;43.644;-79.438;2023-04-24T01:26:15;19.00;44.30
33580;DHT22;19909;43.644;-79.438;2023-04-24T01:28:42;19.00;44.20
33580;DHT22;19909;43.644;-79.438;2023-04-24T01:31:08;18.90;44.10
33580;DHT22;19909;43.644;-79.438;2023-04-24T01:33:34;18.90;44.20
33580;DHT22;19909;43.644;-79.438;2023-04-24T01:36:01;18.90;44.00
33580;DHT22;19909;43.644;-79.438;2023-04-24T01:38:27;18.90;43.90
33580;DHT22;19909;43.644;-79.438;2023-04-24T01:40:54;18.90;43.90
33580;DHT22;19909;43.644;-79.438;2023-04-24T01:43:20;18.90;44.10
33580;DHT22;19909;43.644;-79.438;2023-04-24T01:45:47;18.90;44.00
33580;DHT22;19909;43.644;-79.438;2023-04-24T01:48:13;18.90;44.00
33580;DHT22;19909;43.644;-79.438;2023-04-24T01:50:40;18.90;44.10
33580;DHT22;19909;43.644;-79.438;2023-04-24T01:53:06;18.90;44.00
33580;DHT22;19909;43.644;-79.438;2023-04-24T01:55:32;18.90;44.00
33580;DHT22;19909;43.644;-79.438;2023-04-24T01:57:59;18.90;44.20
33580;DHT22;19909;43.644;-79.438;2023-04-24T02:00:27;18.90;44.30
33580;DHT22;19909;43.644;-79.438;2023-04-24T02:02:53;18.90;44.30
33580;DHT22;19909;43.644;-79.438;2023-04-24T02:05:19;18.90;44.00
33580;DHT22;19909;43.644;-79.438;2023-04-24T02:07:45;18.90;43.90
33580;DHT22;19909;43.644;-79.438;2023-04-24T02:10:11;18.90;43.90
33580;DHT22;19909;43.644;-79.438;2023-04-24T02:12:38;18.90;44.00
33580;DHT22;19909;43.644;-79.438;2023-04-24T02:15:04;18.90;44.00
33580;DHT22;19909;43.644;-79.438;2023-04-24T02:17:30;18.90;44.00
33580;DHT22;19909;43.644;-79.438;2023-04-24T02:19:57;18.90;44.00
33580;DHT22;19909;43.644;-79.438;2023-04-24T02:22:23;18.90;44.20
33580;DHT22;19909;43.644;-79.438;2023-04-24T02:24:49;18.90;44.10
33580;DHT22;19909;43.644;-79.438;2023-04-24T02:27:15;18.90;44.20
33580;DHT22;19909;43.644;-79.438;2023-04-24T02:29:41;18.90;44.20
33580;DHT22;19909;43.644;-79.438;2023-04-24T02:32:08;18.90;44.20
33580;DHT22;19909;43.644;-79.438;2023-04-24T02:34:38;18.90;44.10
33580;DHT22;19909;43.644;-79.438;2023-04-24T02:37:04;18.90;43.90
33580;DHT22;19909;43.644;-79.438;2023-04-24T02:39:30;18.90;43.90
33580;DHT22;19909;43.644;-79.438;2023-04-24T02:41:56;18.90;44.00
33580;DHT22;19909;43.644;-79.438;2023-04-24T02:44:22;18.90;44.00
33580;DHT22;19909;43.644;-79.438;2023-04-24T02:46:49;18.90;44.00
33580;DHT22;19909;43.644;-79.438;2023-04-24T02:49:15;18.90;44.20
33580;DHT22;19909;43.644;-79.438;2023-04-24T02:51:41;18.90;44.80
33580;DHT22;19909;43.644;-79.438;2023-04-24T02:54:08;18.90;44.20
33580;DHT22;19909;43.644;-79.438;2023-04-24T02:56:35;18.90;44.20
33580;DHT22;19909;43.644;-79.438;2023-04-24T02:59:02;18.90;44.20
33580;DHT22;19909;43.644;-79.438;2023-04-24T03:01:28;18.90;44.70
33580;DHT22;19909;43.644;-79.438;2023-04-24T03:03:55;18.90;44.10
33580;DHT22;19909;43.644;-79.438;2023-04-24T03:06:21;18.90;43.90
33580;DHT22;19909;43.644;-79.438;2023-04-24T03:08:47;18.90;43.90
33580;DHT22;19909;43.644;-79.438;2023-04-24T03:11:14;18.90;44.00
33580;DHT22;19909;43.644;-79.438;2023-04-24T03:13:40;18.90;44.20
33580;DHT22;19909;43.644;-79.438;2023-04-24T03:16:06;18.90;44.00
33580;DHT22;19909;43.644;-79.438;2023-04-24T03:18:32;18.90;44.20
33580;DHT22;19909;43.644;-79.438;2023-04-24T03:20:58;18.90;44.20
33580;DHT22;19909;43.644;-79.438;2023-04-24T03:23:25;18.90;44.30
33580;DHT22;19909;43.644;-79.438;2023-04-24T03:25:51;18.90;44.20
33580;DHT22;19909;43.644;-79.438;2023-04-24T03:28:17;18.90;44.50
33580;DHT22;19909;43.644;-79.438;2023-04-24T03:30:43;18.90;44.30
33580;DHT22;19909;43.644;-79.438;2023-04-24T03:33:09;18.90;44.40
33580;DHT22;19909;43.644;-79.438;2023-04-24T03:35:36;18.90;44.00
33580;DHT22;19909;43.644;-79.438;2023-04-24T03:38:02;18.90;43.90
33580;DHT22;19909;43.644;-79.438;2023-04-24T03:40:30;18.90;43.90
33580;DHT22;19909;43.644;-79.438;2023-04-24T03:42:56;18.90;44.00
33580;DHT22;19909;43.644;-79.438;2023-04-24T03:45:22;18.90;44.10
33580;DHT22;19909;43.644;-79.438;2023-04-24T03:47:49;18.90;44.20
33580;DHT22;19909;43.644;-79.438;2023-04-24T03:50:16;18.90;44.30
33580;DHT22;19909;43.644;-79.438;2023-04-24T03:52:42;18.90;44.40
33580;DHT22;19909;43.644;-79.438;2023-04-24T03:55:08;18.90;44.30
33580;DHT22;19909;43.644;-79.438;2023-04-24T03:57:34;18.90;44.30
33580;DHT22;19909;43.644;-79.438;2023-04-24T04:00:01;18.90;44.40
33580;DHT22;19909;43.644;-79.438;2023-04-24T04:02:29;18.90;44.40
33580;DHT22;19909;43.644;-79.438;2023-04-24T04:04:56;18.90;44.20
33580;DHT22;19909;43.644;-79.438;2023-04-24T04:07:22;18.90;43.90
33580;DHT22;19909;43.644;-79.438;2023-04-24T04:09:48;18.90;44.00
33580;DHT22;19909;43.644;-79.438;2023-04-24T04:12:14;18.90;44.20
33580;DHT22;19909;43.644;-79.438;2023-04-24T04:14:40;18.90;44.30
33580;DHT22;19909;43.644;-79.438;2023-04-24T04:17:07;18.90;44.30
33580;DHT22;19909;43.644;-79.438;2023-04-24T04:19:34;18.90;44.40
33580;DHT22;19909;43.644;-79.438;2023-04-24T04:22:00;18.90;44.40
33580;DHT22;19909;43.644;-79.438;2023-04-24T04:24:26;18.90;44.30
33580;DHT22;19909;43.644;-79.438;2023-04-24T04:26:54;18.90;44.20
33580;DHT22;19909;43.644;-79.438;2023-04-24T04:29:22;18.90;44.40
33580;DHT22;19909;43.644;-79.438;2023-04-24T04:31:49;18.90;44.30
33580;DHT22;19909;43.644;-79.438;2023-04-24T04:34:16;18.90;44.20
33580;DHT22;19909;43.644;-79.438;2023-04-24T04:36:42;18.90;43.90
33580;DHT22;19909;43.644;-79.438;2023-04-24T04:39:09;18.90;43.80
33580;DHT22;19909;43.644;-79.438;2023-04-24T04:41:36;18.90;44.00
33580;DHT22;19909;43.644;-79.438;2023-04-24T04:44:03;18.90;44.10
33580;DHT22;19909;43.644;-79.438;2023-04-24T04:46:30;18.90;44.10
33580;DHT22;19909;43.644;-79.438;2023-04-24T04:49:00;18.90;44.20
33580;DHT22;19909;43.644;-79.438;2023-04-24T04:51:27;18.90;44.20
33580;DHT22;19909;43.644;-79.438;2023-04-24T04:53:53;18.90;44.30
33580;DHT22;19909;43.644;-79.438;2023-04-24T04:56:19;18.90;44.30
33580;DHT22;19909;43.644;-79.438;2023-04-24T04:58:46;18.90;44.30
33580;DHT22;19909;43.644;-79.438;2023-04-24T05:01:12;18.90;44.30
33580;DHT22;19909;43.644;-79.438;2023-04-24T05:03:38;18.80;44.30
33580;DHT22;19909;43.644;-79.438;2023-04-24T05:06:07;18.90;44.00
33580;DHT22;19909;43.644;-79.438;2023-04-24T05:08:34;18.90;43.90
33580;DHT22;19909;43.644;-79.438;2023-04-24T05:11:00;18.80;43.90
33580;DHT22;19909;43.644;-79.438;2023-04-24T05:13:26;18.80;43.90
33580;DHT22;19909;43.644;-79.438;2023-04-24T05:15:52;18.90;43.90
33580;DHT22;19909;43.644;-79.438;2023-04-24T05:18:19;18.90;44.10
33580;DHT22;19909;43.644;-79.438;2023-04-24T05:20:45;18.90;44.20
33580;DHT22;19909;43.644;-79.438;2023-04-24T05:23:11;18.90;44.20
33580;DHT22;19909;43.644;-79.438;2023-04-24T05:25:38;18.80;44.30
33580;DHT22;19909;43.644;-79.438;2023-04-24T05:28:05;18.90;44.30
33580;DHT22;19909;43.644;-79.438;2023-04-24T05:30:32;18.90;44.40
33580;DHT22;19909;43.644;-79.438;2023-04-24T05:32:58;18.90;44.40
33580;DHT22;19909;43.644;-79.438;2023-04-24T05:35:24;18.90;44.10
33580;DHT22;19909;43.644;-79.438;2023-04-24T05:37:50;18.80;44.40
33580;DHT22;19909;43.644;-79.438;2023-04-24T05:40:16;18.80;43.90
33580;DHT22;19909;43.644;-79.438;2023-04-24T05:42:43;18.80;44.10
33580;DHT22;19909;43.644;-79.438;2023-04-24T05:45:09;18.80;44.20
33580;DHT22;19909;43.644;-79.438;2023-04-24T05:47:43;18.80;44.20
33580;DHT22;19909;43.644;-79.438;2023-04-24T05:50:10;18.80;44.30
33580;DHT22;19909;43.644;-79.438;2023-04-24T05:52:37;18.90;44.40
33580;DHT22;19909;43.644;-79.438;2023-04-24T05:55:03;18.90;44.50
33580;DHT22;19909;43.644;-79.438;2023-04-24T05:57:29;18.80;44.40
33580;DHT22;19909;43.644;-79.438;2023-04-24T05:59:56;18.90;44.40
33580;DHT22;19909;43.644;-79.438;2023-04-24T06:02:22;18.90;44.50
33580;DHT22;19909;43.644;-79.438;2023-04-24T06:04:48;18.80;44.10
33580;DHT22;19909;43.644;-79.438;2023-04-24T06:07:14;18.80;43.80
33580;DHT22;19909;43.644;-79.438;2023-04-24T06:09:41;18.80;43.80
33580;DHT22;19909;43.644;-79.438;2023-04-24T06:12:07;18.80;44.10
33580;DHT22;19909;43.644;-79.438;2023-04-24T06:14:34;18.80;44.20
33580;DHT22;19909;43.644;-79.438;2023-04-24T06:17:00;18.80;44.20
33580;DHT22;19909;43.644;-79.438;2023-04-24T06:19:27;18.80;44.30
33580;DHT22;19909;43.644;-79.438;2023-04-24T06:21:53;18.80;44.80
33580;DHT22;19909;43.644;-79.438;2023-04-24T06:24:19;18.90;44.40
33580;DHT22;19909;43.644;-79.438;2023-04-24T06:26:45;18.80;44.30
33580;DHT22;19909;43.644;-79.438;2023-04-24T06:29:12;18.80;44.50
33580;DHT22;19909;43.644;-79.438;2023-04-24T06:31:38;18.80;44.40
33580;DHT22;19909;43.644;-79.438;2023-04-24T06:34:04;18.80;44.40
33580;DHT22;19909;43.644;-79.438;2023-04-24T06:36:31;18.80;43.90
33580;DHT22;19909;43.644;-79.438;2023-04-24T06:39:00;18.80;43.80
33580;DHT22;19909;43.644;-79.438;2023-04-24T06:41:26;18.80;44.10
33580;DHT22;19909;43.644;-79.438;2023-04-24T06:43:52;18.80;44.30
33580;DHT22;19909;43.644;-79.438;2023-04-24T06:46:18;18.80;44.30
33580;DHT22;19909;43.644;-79.438;2023-04-24T06:48:44;18.80;44.30
33580;DHT22;19909;43.644;-79.438;2023-04-24T06:51:11;18.80;44.30
33580;DHT22;19909;43.644;-79.438;2023-04-24T06:53:37;18.80;44.40
33580;DHT22;19909;43.644;-79.438;2023-04-24T06:56:03;18.80;44.30
33580;DHT22;19909;43.644;-79.438;2023-04-24T06:58:30;18.80;44.50
33580;DHT22;19909;43.644;-79.438;2023-04-24T07:00:57;18.80;44.40
33580;DHT22;19909;43.644;-79.438;2023-04-24T07:03:23;18.80;44.40
33580;DHT22;19909;43.644;-79.438;2023-04-24T07:05:49;18.80;44.00
33580;DHT22;19909;43.644;-79.438;2023-04-24T07:08:15;18.80;43.90
33580;DHT22;19909;43.644;-79.438;2023-04-24T07:10:44;18.80;44.00
33580;DHT22;19909;43.644;-79.438;2023-04-24T07:13:10;18.80;44.20
33580;DHT22;19909;43.644;-79.438;2023-04-24T07:15:36;18.80;44.30
33580;DHT22;19909;43.644;-79.438;2023-04-24T07:18:03;18.80;44.30
33580;DHT22;19909;43.644;-79.438;2023-04-24T07:20:29;18.80;44.30
33580;DHT22;19909;43.644;-79.438;2023-04-24T07:22:55;18.80;44.30
33580;DHT22;19909;43.644;-79.438;2023-04-24T07:25:21;18.80;44.30
33580;DHT22;19909;43.644;-79.438;2023-04-24T07:27:48;18.80;44.40
33580;DHT22;19909;43.644;-79.438;2023-04-24T07:30:14;18.80;44.50
33580;DHT22;19909;43.644;-79.438;2023-04-24T07:32:40;18.80;44.50
33580;DHT22;19909;43.644;-79.438;2023-04-24T07:35:07;18.80;44.20
33580;DHT22;19909;43.644;-79.438;2023-04-24T07:37:35;18.80;43.90
33580;DHT22;19909;43.644;-79.438;2023-04-24T07:40:01;18.80;43.90
33580;DHT22;19909;43.644;-79.438;2023-04-24T07:42:28;18.80;44.20
33580;DHT22;19909;43.644;-79.438;2023-04-24T07:44:56;18.80;44.20
33580;DHT22;19909;43.644;-79.438;2023-04-24T07:47:22;18.80;44.30
33580;DHT22;19909;43.644;-79.438;2023-04-24T07:49:48;18.80;44.30
33580;DHT22;19909;43.644;-79.438;2023-04-24T07:52:14;18.70;44.30
33580;DHT22;19909;43.644;-79.438;2023-04-24T07:54:41;18.80;44.40
33580;DHT22;19909;43.644;-79.438;2023-04-24T07:57:08;18.80;44.40
33580;DHT22;19909;43.644;-79.438;2023-04-24T07:59:34;18.80;44.40
33580;DHT22;19909;43.644;-79.438;2023-04-24T08:02:01;18.80;44.40
33580;DHT22;19909;43.644;-79.438;2023-04-24T08:04:27;18.80;44.30
33580;DHT22;19909;43.644;-79.438;2023-04-24T08:06:53;18.80;43.90
33580;DHT22;19909;43.644;-79.438;2023-04-24T08:09:20;18.70;43.90
33580;DHT22;19909;43.644;-79.438;2023-04-24T08:11:46;18.70;44.10
33580;DHT22;19909;43.644;-79.438;2023-04-24T08:14:12;18.70;44.20
33580;DHT22;19909;43.644;-79.438;2023-04-24T08:16:39;18.70;44.20
33580;DHT22;19909;43.644;-79.438;2023-04-24T08:19:05;18.80;44.30
33580;DHT22;19909;43.644;-79.438;2023-04-24T08:21:31;18.70;44.30
33580;DHT22;19909;43.644;-79.438;2023-04-24T08:23:57;18.80;44.40
33580;DHT22;19909;43.644;-79.438;2023-04-24T08:26:24;18.80;44.40
33580;DHT22;19909;43.644;-79.438;2023-04-24T08:28:50;18.70;44.40
33580;DHT22;19909;43.644;-79.438;2023-04-24T08:31:16;18.80;44.40
33580;DHT22;19909;43.644;-79.438;2023-04-24T08:33:43;18.80;44.40
33580;DHT22;19909;43.644;-79.438;2023-04-24T08:36:10;18.70;43.90
33580;DHT22;19909;43.644;-79.438;2023-04-24T08:38:36;18.70;43.70
33580;DHT22;19909;43.644;-79.438;2023-04-24T08:41:03;18.70;44.00
33580;DHT22;19909;43.644;-79.438;2023-04-24T08:43:33;18.70;44.00
33580;DHT22;19909;43.644;-79.438;2023-04-24T08:46:04;18.70;44.00
33580;DHT22;19909;43.644;-79.438;2023-04-24T08:48:30;18.70;43.90
33580;DHT22;19909;43.644;-79.438;2023-04-24T08:50:58;18.70;43.90
33580;DHT22;19909;43.644;-79.438;2023-04-24T08:53:25;18.70;44.00
33580;DHT22;19909;43.644;-79.438;2023-04-24T08:55:51;18.70;44.00
33580;DHT22;19909;43.644;-79.438;2023-04-24T08:58:19;18.70;43.90
33580;DHT22;19909;43.644;-79.438;2023-04-24T09:00:46;18.80;44.00
33580;DHT22;19909;43.644;-79.438;2023-04-24T09:03:15;18.70;43.90
33580;DHT22;19909;43.644;-79.438;2023-04-24T09:05:47;18.70;43.70
33580;DHT22;19909;43.644;-79.438;2023-04-24T09:08:14;18.70;43.60
33580;DHT22;19909;43.644;-79.438;2023-04-24T09:10:41;18.70;43.80
33580;DHT22;19909;43.644;-79.438;2023-04-24T09:13:07;18.70;43.80
33580;DHT22;19909;43.644;-79.438;2023-04-24T09:15:40;18.70;43.90
33580;DHT22;19909;43.644;-79.438;2023-04-24T09:18:07;18.70;43.90
33580;DHT22;19909;43.644;-79.438;2023-04-24T09:20:33;18.70;43.90
33580;DHT22;19909;43.644;-79.438;2023-04-24T09:23:01;18.80;44.00
33580;DHT22;19909;43.644;-79.438;2023-04-24T09:25:34;18.70;44.00
33580;DHT22;19909;43.644;-79.438;2023-04-24T09:28:04;18.70;44.00
33580;DHT22;19909;43.644;-79.438;2023-04-24T09:30:32;18.70;44.10
33580;DHT22;19909;43.644;-79.438;2023-04-24T09:33:14;18.70;44.00
33580;DHT22;19909;43.644;-79.438;2023-04-24T09:35:42;18.70;43.80
33580;DHT22;19909;43.644;-79.438;2023-04-24T09:38:09;18.70;43.60
33580;DHT22;19909;43.644;-79.438;2023-04-24T09:40:36;18.70;43.80
33580;DHT22;19909;43.644;-79.438;2023-04-24T09:43:02;18.70;43.90
33580;DHT22;19909;43.644;-79.438;2023-04-24T09:45:35;18.70;44.00
33580;DHT22;19909;43.644;-79.438;2023-04-24T09:48:02;18.70;44.00
33580;DHT22;19909;43.644;-79.438;2023-04-24T09:50:30;18.70;44.10
33580;DHT22;19909;43.644;-79.438;2023-04-24T09:53:03;18.70;44.10
33580;DHT22;19909;43.644;-79.438;2023-04-24T09:55:30;18.70;44.10
33580;DHT22;19909;43.644;-79.438;2023-04-24T09:58:00;18.70;44.80
33580;DHT22;19909;43.644;-79.438;2023-04-24T10:00:32;18.70;44.30
33580;DHT22;19909;43.644;-79.438;2023-04-24T10:03:03;18.70;44.20
33580;DHT22;19909;43.644;-79.438;2023-04-24T10:05:36;18.70;43.80
33580;DHT22;19909;43.644;-79.438;2023-04-24T10:08:03;18.70;43.70
33580;DHT22;19909;43.644;-79.438;2023-04-24T10:10:31;18.70;43.80
33580;DHT22;19909;43.644;-79.438;2023-04-24T10:12:58;18.70;44.00
33580;DHT22;19909;43.644;-79.438;2023-04-24T10:15:26;18.70;44.00
33580;DHT22;19909;43.644;-79.438;2023-04-24T10:17:52;18.70;44.10
33580;DHT22;19909;43.644;-79.438;2023-04-24T10:20:23;18.70;44.20
33580;DHT22;19909;43.644;-79.438;2023-04-24T10:22:52;18.70;44.20
33580;DHT22;19909;43.644;-79.438;2023-04-24T10:25:20;18.70;44.30
33580;DHT22;19909;43.644;-79.438;2023-04-24T10:27:48;18.70;44.20
33580;DHT22;19909;43.644;-79.438;2023-04-24T10:30:16;18.70;44.30
33580;DHT22;19909;43.644;-79.438;2023-04-24T10:32:42;18.70;44.30
33580;DHT22;19909;43.644;-79.438;2023-04-24T10:35:10;18.70;43.90
33580;DHT22;19909;43.644;-79.438;2023-04-24T10:40:34;18.70;43.80
33580;DHT22;19909;43.644;-79.438;2023-04-24T10:43:03;18.70;44.00
33580;DHT22;19909;43.644;-79.438;2023-04-24T10:45:32;18.70;44.00
33580;DHT22;19909;43.644;-79.438;2023-04-24T10:47:59;18.70;44.10
33580;DHT22;19909;43.644;-79.438;2023-04-24T10:50:52;18.70;44.30
33580;DHT22;19909;43.644;-79.438;2023-04-24T10:53:21;18.70;44.20
33580;DHT22;19909;43.644;-79.438;2023-04-24T10:56:09;18.70;44.20
33580;DHT22;19909;43.644;-79.438;2023-04-24T10:58:49;18.70;44.30
33580;DHT22;19909;43.644;-79.438;2023-04-24T11:01:27;18.70;44.30
33580;DHT22;19909;43.644;-79.438;2023-04-24T11:03:59;18.70;44.20
33580;DHT22;19909;43.644;-79.438;2023-04-24T11:06:36;18.70;43.80
33580;DHT22;19909;43.644;-79.438;2023-04-24T11:09:10;18.70;43.70
33580;DHT22;19909;43.644;-79.438;2023-04-24T11:11:44;18.70;44.00
33580;DHT22;19909;43.644;-79.438;2023-04-24T11:14:11;18.70;44.00
33580;DHT22;19909;43.644;-79.438;2023-04-24T11:16:52;18.70;44.10
33580;DHT22;19909;43.644;-79.438;2023-04-24T11:19:24;18.60;44.10
33580;DHT22;19909;43.644;-79.438;2023-04-24T11:22:00;18.60;44.30
33580;DHT22;19909;43.644;-79.438;2023-04-24T11:27:06;18.60;44.30
33580;DHT22;19909;43.644;-79.438;2023-04-24T11:37:29;18.60;43.70
33580;DHT22;19909;43.644;-79.438;2023-04-24T11:39:57;18.60;43.80
33580;DHT22;19909;43.644;-79.438;2023-04-24T11:42:24;18.60;43.90
33580;DHT22;19909;43.644;-79.438;2023-04-24T11:44:54;18.60;44.10
33580;DHT22;19909;43.644;-79.438;2023-04-24T11:47:31;18.60;44.00
33580;DHT22;19909;43.644;-79.438;2023-04-24T11:49:59;18.60;44.00
33580;DHT22;19909;43.644;-79.438;2023-04-24T11:52:27;18.70;44.20
33580;DHT22;19909;43.644;-79.438;2023-04-24T11:54:54;18.70;44.10
33580;DHT22;19909;43.644;-79.438;2023-04-24T11:57:21;18.70;44.20
33580;DHT22;19909;43.644;-79.438;2023-04-24T11:59:48;18.70;44.20
33580;DHT22;19909;43.644;-79.438;2023-04-24T12:04:47;18.70;44.00
33580;DHT22;19909;43.644;-79.438;2023-04-24T12:07:13;18.60;43.70
33580;DHT22;19909;43.644;-79.438;2023-04-24T12:09:44;18.60;43.70
33580;DHT22;19909;43.644;-79.438;2023-04-24T12:12:12;18.60;44.00
33580;DHT22;19909;43.644;-79.438;2023-04-24T12:14:48;18.60;44.10
33580;DHT22;19909;43.644;-79.438;2023-04-24T12:17:16;18.70;44.00
33580;DHT22;19909;43.644;-79.438;2023-04-24T12:19:47;18.60;44.10
33580;DHT22;19909;43.644;-79.438;2023-04-24T12:22:13;18.60;44.10
33580;DHT22;19909;43.644;-79.438;2023-04-24T12:24:59;18.60;44.10
33580;DHT22;19909;43.644;-79.438;2023-04-24T12:27:29;18.60;44.10
33580;DHT22;19909;43.644;-79.438;2023-04-24T12:30:00;18.60;44.10
33580;DHT22;19909;43.644;-79.438;2023-04-24T12:32:26;18.60;44.10
33580;DHT22;19909;43.644;-79.438;2023-04-24T12:34:54;18.60;43.90
33580;DHT22;19909;43.644;-79.438;2023-04-24T12:37:22;18.60;44.20
33580;DHT22;19909;43.644;-79.438;2023-04-24T12:40:18;18.60;43.60
33580;DHT22;19909;43.644;-79.438;2023-04-24T12:42:50;18.60;44.00
33580;DHT22;19909;43.644;-79.438;2023-04-24T12:45:19;18.60;44.00
33580;DHT22;19909;43.644;-79.438;2023-04-24T12:47:49;18.60;44.00
33580;DHT22;19909;43.644;-79.438;2023-04-24T12:50:15;18.60;44.00
33580;DHT22;19909;43.644;-79.438;2023-04-24T12:52:42;18.60;44.10
33580;DHT22;19909;43.644;-79.438;2023-04-24T12:55:09;18.60;44.30
33580;DHT22;19909;43.644;-79.438;2023-04-24T12:57:38;18.60;44.10
33580;DHT22;19909;43.644;-79.438;2023-04-24T13:00:07;18.60;44.20
33580;DHT22;19909;43.644;-79.438;2023-04-24T13:02:33;18.60;44.20
33580;DHT22;19909;43.644;-79.438;2023-04-24T13:05:00;18.60;43.90
33580;DHT22;19909;43.644;-79.438;2023-04-24T13:07:27;18.60;43.60
33580;DHT22;19909;43.644;-79.438;2023-04-24T13:09:55;18.60;43.60
33580;DHT22;19909;43.644;-79.438;2023-04-24T13:12:21;18.60;43.90
33580;DHT22;19909;43.644;-79.438;2023-04-24T13:14:49;18.60;43.90
33580;DHT22;19909;43.644;-79.438;2023-04-24T13:17:15;18.60;44.10
33580;DHT22;19909;43.644;-79.438;2023-04-24T13:19:43;18.60;44.10
33580;DHT22;19909;43.644;-79.438;2023-04-24T13:22:11;18.60;44.20
33580;DHT22;19909;43.644;-79.438;2023-04-24T13:24:39;18.60;44.00
33580;DHT22;19909;43.644;-79.438;2023-04-24T13:27:08;18.60;44.10
33580;DHT22;19909;43.644;-79.438;2023-04-24T13:29:35;18.60;44.10
33580;DHT22;19909;43.644;-79.438;2023-04-24T13:32:02;18.60;44.20
33580;DHT22;19909;43.644;-79.438;2023-04-24T13:34:28;18.60;44.00
33580;DHT22;19909;43.644;-79.438;2023-04-24T13:36:55;18.60;43.70
33580;DHT22;19909;43.644;-79.438;2023-04-24T13:39:23;18.60;43.60
33580;DHT22;19909;43.644;-79.438;2023-04-24T13:41:49;18.60;43.90
33580;DHT22;19909;43.644;-79.438;2023-04-24T13:44:17;18.60;44.00
33580;DHT22;19909;43.644;-79.438;2023-04-24T13:46:45;18.60;44.10
33580;DHT22;19909;43.644;-79.438;2023-04-24T13:49:15;18.60;44.00
33580;DHT22;19909;43.644;-79.438;2023-04-24T13:51:42;18.60;44.10
33580;DHT22;19909;43.644;-79.438;2023-04-24T13:54:08;18.60;44.20
33580;DHT22;19909;43.644;-79.438;2023-04-24T13:56:34;18.60;44.20
33580;DHT22;19909;43.644;-79.438;2023-04-24T13:59:01;18.60;44.20
33580;DHT22;19909;43.644;-79.438;2023-04-24T14:01:28;18.60;44.10
33580;DHT22;19909;43.644;-79.438;2023-04-24T14:03:56;18.60;44.10
33580;DHT22;19909;43.644;-79.438;2023-04-24T14:06:22;18.60;43.70
33580;DHT22;19909;43.644;-79.438;2023-04-24T14:08:49;18.60;43.50
33580;DHT22;19909;43.644;-79.438;2023-04-24T14:11:16;18.60;43.80
33580;DHT22;19909;43.644;-79.438;2023-04-24T14:13:43;18.60;43.90
33580;DHT22;19909;43.644;-79.438;2023-04-24T14:16:10;18.60;43.90
33580;DHT22;19909;43.644;-79.438;2023-04-24T14:18:37;18.60;44.00
33580;DHT22;19909;43.644;-79.438;2023-04-24T14:21:04;18.60;44.00
33580;DHT22;19909;43.644;-79.438;2023-04-24T14:23:31;18.60;44.00
33580;DHT22;19909;43.644;-79.438;2023-04-24T14:25:58;18.60;44.00
33580;DHT22;19909;43.644;-79.438;2023-04-24T14:28:25;18.60;44.10
33580;DHT22;19909;43.644;-79.438;2023-04-24T14:30:52;18.60;44.10
33580;DHT22;19909;43.644;-79.438;2023-04-24T14:33:19;18.60;44.30
33580;DHT22;19909;43.644;-79.438;2023-04-24T14:35:46;18.60;43.80
33580;DHT22;19909;43.644;-79.438;2023-04-24T14:38:12;18.60;44.10
33580;DHT22;19909;43.644;-79.438;2023-04-24T14:40:38;18.60;43.80
33580;DHT22;19909;43.644;-79.438;2023-04-24T14:43:04;18.60;43.90
33580;DHT22;19909;43.644;-79.438;2023-04-24T14:45:31;18.60;44.00
33580;DHT22;19909;43.644;-79.438;2023-04-24T14:47:57;18.60;44.00
33580;DHT22;19909;43.644;-79.438;2023-04-24T14:50:24;18.60;44.10
33580;DHT22;19909;43.644;-79.438;2023-04-24T14:52:54;18.60;44.20
33580;DHT22;19909;43.644;-79.438;2023-04-24T14:55:23;18.60;44.10
33580;DHT22;19909;43.644;-79.438;2023-04-24T14:57:50;18.60;44.10
33580;DHT22;19909;43.644;-79.438;2023-04-24T15:00:17;18.60;44.20
33580;DHT22;19909;43.644;-79.438;2023-04-24T15:02:43;18.60;44.20
33580;DHT22;19909;43.644;-79.438;2023-04-24T15:05:10;18.60;44.00
33580;DHT22;19909;43.644;-79.438;2023-04-24T15:07:38;18.60;43.70
33580;DHT22;19909;43.644;-79.438;2023-04-24T15:10:05;18.60;43.80
33580;DHT22;19909;43.644;-79.438;2023-04-24T15:12:31;18.60;43.90
33580;DHT22;19909;43.644;-79.438;2023-04-24T15:14:58;18.60;44.10
33580;DHT22;19909;43.644;-79.438;2023-04-24T15:17:25;18.60;44.10
33580;DHT22;19909;43.644;-79.438;2023-04-24T15:19:51;18.60;44.10